Time;durP1;ratioP1;P1;durP2;ratioP2;P2;SDS_P1;SDS_P2;PMS_P1;PMS_P2;Temp;Humidity;BMP_temperature;BMP_pressure;BME280_temperature;BME280_humidity;BME280_pressure;Samples;Min_cycle;Max_cycle;Signal;HPM_P1;HPM_P2
2021/11/01 00:01:14;;;;;;;16.80;10.40;;;11.50;99.90;;;;;;5053828;28;20455;-54
2021/11/01 00:03:41;;;;;;;12.80;9.00;;;11.30;99.90;;;;;;5053548;28;21031;-53
2021/11/01 00:06:10;;;;;;;15.53;10.33;;;11.30;99.90;;;;;;5053488;28;20484;-53
2021/11/01 00:08:37;;;;;;;14.90;10.37;;;11.20;99.90;;;;;;5043461;28;20449;-53
2021/11/01 00:11:04;;;;;;;16.30;11.70;;;11.30;99.90;;;;;;5045411;28;20456;-54
2021/11/01 00:13:31;;;;;;;17.77;11.53;;;11.10;99.90;;;;;;5052478;28;20448;-53
2021/11/01 00:15:59;;;;;;;17.10;11.00;;;;;;;;;;5053763;28;20490;-53
2021/11/01 00:18:27;;;;;;;20.87;12.97;;;11.00;99.90;;;;;;5053721;28;20447;-54
2021/11/01 00:20:54;;;;;;;20.67;13.13;;;11.00;99.90;;;;;;5053670;28;20452;-54
2021/11/01 00:23:21;;;;;;;18.80;12.30;;;10.80;99.90;;;;;;5053464;28;20452;-54
2021/11/01 00:25:48;;;;;;;19.20;12.60;;;10.80;99.90;;;;;;5053375;28;20919;-54
2021/11/01 00:28:15;;;;;;;21.57;12.10;;;10.80;99.90;;;;;;5051341;28;20573;-54
2021/11/01 00:30:42;;;;;;;17.53;12.40;;;11.10;99.90;;;;;;5051125;28;20451;-53
2021/11/01 00:33:09;;;;;;;19.07;12.07;;;10.90;99.90;;;;;;5053242;28;20468;-53
2021/11/01 00:35:38;;;;;;;17.07;11.10;;;10.70;99.90;;;;;;5053088;28;20487;-54
2021/11/01 00:38:05;;;;;;;21.77;12.37;;;10.90;99.90;;;;;;5053091;28;20482;-54
2021/11/01 00:40:32;;;;;;;18.70;12.63;;;10.90;99.90;;;;;;5052807;28;20455;-54
2021/11/01 00:43:03;;;;;;;18.33;12.97;;;10.80;99.90;;;;;;5053075;28;20452;-54
2021/11/01 00:45:30;;;;;;;18.83;12.93;;;10.80;99.90;;;;;;5053229;28;20525;-54
2021/11/01 00:47:57;;;;;;;21.03;12.40;;;10.80;99.90;;;;;;5052287;28;20478;-54
2021/11/01 00:50:24;;;;;;;18.27;12.90;;;10.80;99.90;;;;;;5052839;28;20519;-54
2021/11/01 00:52:54;;;;;;;18.40;12.93;;;10.70;99.90;;;;;;5052574;28;20448;-54
2021/11/01 00:55:24;;;;;;;18.90;12.83;;;10.70;99.90;;;;;;5052367;28;20501;-54
2021/11/01 00:57:52;;;;;;;19.60;12.63;;;10.70;99.90;;;;;;5052597;28;20525;-54
2021/11/01 01:00:20;;;;;;;17.77;12.07;;;10.60;99.90;;;;;;5052707;28;20873;-55
2021/11/01 01:02:49;;;;;;;18.07;12.23;;;10.80;99.90;;;;;;5052665;28;20440;-54
2021/11/01 01:05:17;;;;;;;17.40;12.60;;;10.90;99.90;;;;;;5052806;28;20531;-54
2021/11/01 01:07:44;;;;;;;18.97;12.40;;;10.60;99.90;;;;;;5051825;28;20474;-54
2021/11/01 01:10:13;;;;;;;17.70;11.50;;;10.60;99.90;;;;;;5052456;28;20455;-56
2021/11/01 01:12:42;;;;;;;16.17;11.97;;;10.50;99.90;;;;;;5052285;28;20483;-54
2021/11/01 01:15:11;;;;;;;18.57;13.33;;;10.50;99.90;;;;;;5052378;28;20558;-54
2021/11/01 01:17:41;;;;;;;19.13;11.33;;;10.40;99.90;;;;;;5050410;28;20550;-54
2021/11/01 01:20:12;;;;;;;21.23;11.53;;;10.50;99.90;;;;;;5051777;28;21011;-54
2021/11/01 01:22:40;;;;;;;18.57;12.67;;;10.50;99.90;;;;;;5051826;28;20448;-54
2021/11/01 01:25:29;;;;;;;20.00;14.27;;;10.40;99.90;;;;;;5052119;28;20443;-55
2021/11/01 01:27:56;;;;;;;22.60;14.27;;;10.50;99.90;;;;;;5052157;28;20555;-54
2021/11/01 01:30:25;;;;;;;23.00;14.73;;;10.50;99.90;;;;;;5051620;28;20451;-54
2021/11/01 01:32:52;;;;;;;31.23;15.20;;;10.40;99.90;;;;;;5051937;28;20938;-54
2021/11/01 01:35:19;;;;;;;24.57;14.87;;;10.40;99.90;;;;;;5051997;28;20483;-55
2021/11/01 01:37:47;;;;;;;23.70;14.80;;;10.50;99.90;;;;;;5051798;28;20985;-54
2021/11/01 01:40:16;;;;;;;24.73;15.97;;;10.50;99.90;;;;;;5052278;28;20866;-54
2021/11/01 01:42:43;;;;;;;21.37;14.57;;;10.40;99.90;;;;;;5046938;28;20516;-55
2021/11/01 01:45:12;;;;;;;25.57;15.40;;;10.50;99.90;;;;;;5032263;28;20444;-54
2021/11/01 01:47:40;;;;;;;25.27;14.73;;;10.40;99.90;;;;;;5032020;28;20518;-54
2021/11/01 01:50:09;;;;;;;28.80;16.10;;;10.30;99.90;;;;;;5050197;28;20454;-54
2021/11/01 01:52:36;;;;;;;21.17;14.37;;;10.40;99.90;;;;;;5051398;28;20444;-55
2021/11/01 01:55:03;;;;;;;22.37;14.47;;;10.50;99.90;;;;;;5051796;28;20486;-54
2021/11/01 01:57:32;;;;;;;22.00;14.70;;;10.60;99.90;;;;;;5051833;28;20472;-54
2021/11/01 01:59:59;;;;;;;22.87;15.57;;;10.50;99.90;;;;;;5051822;28;20462;-54
2021/11/01 02:02:26;;;;;;;21.83;15.10;;;10.60;99.90;;;;;;5051160;28;20517;-54
2021/11/01 02:04:53;;;;;;;21.23;14.00;;;10.60;99.90;;;;;;5052081;28;20456;-54
2021/11/01 02:07:30;;;;;;;20.13;13.93;;;10.60;99.90;;;;;;5051668;28;20475;-54
2021/11/01 02:10:06;;;;;;;19.73;14.27;;;10.60;99.90;;;;;;5051491;28;21022;-54
2021/11/01 02:12:39;;;;;;;25.40;14.10;;;10.40;99.90;;;;;;5051369;28;20451;-54
2021/11/01 02:15:11;;;;;;;20.50;13.70;;;10.20;99.90;;;;;;5051541;28;20487;-54
2021/11/01 02:17:39;;;;;;;21.90;13.43;;;10.20;99.90;;;;;;5051604;28;20464;-54
2021/11/01 02:20:09;;;;;;;24.13;14.53;;;10.30;99.90;;;;;;5051644;28;20451;-54
2021/11/01 02:22:48;;;;;;;21.53;13.63;;;10.50;99.90;;;;;;5051134;28;20448;-55
2021/11/01 02:25:27;;;;;;;23.60;14.63;;;10.50;99.90;;;;;;5051752;28;20451;-54
2021/11/01 02:27:55;;;;;;;18.87;13.10;;;10.60;99.90;;;;;;5075094;22;21000;-51
2021/11/01 02:30:22;;;;;;;20.57;13.87;;;10.70;99.90;;;;;;5053663;28;21003;-49
2021/11/01 02:32:51;;;;;;;23.77;14.03;;;10.80;99.90;;;;;;5057785;28;20815;-49
2021/11/01 02:35:18;;;;;;;21.13;14.70;;;10.70;99.90;;;;;;5075600;28;20478;-49
2021/11/01 02:37:47;;;;;;;21.87;14.20;;;10.70;99.90;;;;;;5075396;28;20553;-49
2021/11/01 02:40:14;;;;;;;22.00;14.30;;;10.70;99.90;;;;;;5063010;28;20443;-49
2021/11/01 02:42:42;;;;;;;20.63;13.53;;;10.80;99.90;;;;;;5055230;28;20969;-49
2021/11/01 02:45:12;;;;;;;21.03;13.73;;;10.90;99.90;;;;;;5055678;28;20451;-49
2021/11/01 02:47:39;;;;;;;20.80;13.30;;;10.80;99.90;;;;;;5055533;28;20874;-49
2021/11/01 02:50:12;;;;;;;22.23;12.70;;;10.90;99.90;;;;;;5062685;28;20458;-49
2021/11/01 02:52:39;;;;;;;26.10;13.70;;;10.80;99.90;;;;;;5067346;28;20887;-49
2021/11/01 02:55:07;;;;;;;18.27;12.70;;;10.80;99.90;;;;;;5054988;28;20447;-49
2021/11/01 02:57:35;;;;;;;19.57;12.53;;;10.70;99.90;;;;;;5055427;28;20474;-49
2021/11/01 03:00:05;;;;;;;18.77;12.50;;;10.60;99.90;;;;;;5055147;28;20448;-49
2021/11/01 03:02:34;;;;;;;17.77;11.73;;;10.60;99.90;;;;;;5054506;28;20483;-49
2021/11/01 03:05:02;;;;;;;16.27;11.17;;;10.60;99.90;;;;;;5066843;28;20461;-49
2021/11/01 03:07:29;;;;;;;15.07;9.87;;;10.50;99.90;;;;;;5075050;28;20474;-49
2021/11/01 03:09:57;;;;;;;13.43;9.67;;;10.70;99.90;;;;;;5074956;28;20454;-49
2021/11/01 03:12:25;;;;;;;13.40;9.13;;;10.70;99.90;;;;;;5064905;28;20459;-49
2021/11/01 03:14:58;;;;;;;12.33;8.47;;;10.60;99.90;;;;;;5055091;28;20460;-49
2021/11/01 03:17:28;;;;;;;11.80;8.60;;;10.70;99.90;;;;;;5054660;28;20503;-48
2021/11/01 03:20:00;;;;;;;11.73;8.30;;;10.90;99.90;;;;;;5054471;28;20998;-49
2021/11/01 03:22:32;;;;;;;14.53;8.70;;;11.00;99.90;;;;;;5054398;28;21045;-49
2021/11/01 03:25:06;;;;;;;14.70;9.60;;;11.00;99.90;;;;;;5054919;28;20454;-49
2021/11/01 03:27:35;;;;;;;11.07;8.50;;;10.80;99.90;;;;;;5053040;28;20478;-49
2021/11/01 03:30:03;;;;;;;13.47;10.00;;;10.70;99.90;;;;;;5054810;28;20505;-49
2021/11/01 03:32:32;;;;;;;15.97;10.40;;;10.60;99.90;;;;;;5059783;28;21108;-49
2021/11/01 03:35:01;;;;;;;13.60;10.17;;;10.60;99.90;;;;;;5074636;28;20504;-49
2021/11/01 03:37:29;;;;;;;15.80;10.70;;;10.50;99.90;;;;;;5074340;28;20537;-49
2021/11/01 03:39:59;;;;;;;16.47;10.77;;;10.60;99.90;;;;;;5074296;28;20461;-49
2021/11/01 03:42:26;;;;;;;17.70;10.30;;;10.80;99.90;;;;;;5064055;28;20480;-48
2021/11/01 03:45:00;;;;;;;16.53;9.90;;;10.80;99.90;;;;;;5054520;28;20444;-49
2021/11/01 03:47:31;;;;;;;15.00;10.20;;;10.90;99.90;;;;;;5067136;28;20559;-49
2021/11/01 03:50:04;;;;;;;11.63;8.73;;;10.90;99.90;;;;;;5074195;28;20505;-49
2021/11/01 03:52:35;;;;;;;14.43;9.60;;;11.00;99.90;;;;;;5063904;28;20452;-49
2021/11/01 03:55:03;;;;;;;13.53;9.60;;;11.00;99.90;;;;;;5054138;28;20462;-49
2021/11/01 03:57:30;;;;;;;14.70;9.67;;;10.80;99.90;;;;;;5054093;28;20574;-49
2021/11/01 03:59:58;;;;;;;13.60;9.60;;;10.70;99.90;;;;;;5054287;28;20452;-49
2021/11/01 04:02:25;;;;;;;16.63;10.10;;;10.50;99.90;;;;;;5064233;28;20460;-49
2021/11/01 04:04:54;;;;;;;14.53;9.57;;;10.50;99.90;;;;;;5053913;28;20459;-49
2021/11/01 04:07:23;;;;;;;14.33;9.27;;;10.70;99.90;;;;;;5053099;28;20526;-49
2021/11/01 04:09:50;;;;;;;12.70;9.53;;;10.70;99.90;;;;;;5053274;28;20486;-49
2021/11/01 04:12:17;;;;;;;14.30;10.10;;;10.50;99.90;;;;;;5053329;28;20494;-49
2021/11/01 04:14:46;;;;;;;13.20;8.83;;;10.30;99.90;;;;;;5056871;28;20454;-49
2021/11/01 04:17:22;;;;;;;14.73;9.60;;;10.00;99.90;;;;;;5053805;28;20495;-49
2021/11/01 04:19:58;;;;;;;13.93;9.50;;;10.00;99.90;;;;;;5053288;28;20456;-49
2021/11/01 04:22:29;;;;;;;13.20;9.63;;;9.80;99.90;;;;;;5052861;28;20447;-49
2021/11/01 04:24:56;;;;;;;16.87;10.60;;;9.70;99.90;;;;;;5065726;28;20501;-49
2021/11/01 04:27:23;;;;;;;18.20;10.40;;;9.50;99.90;;;;;;5067554;28;20474;-49
2021/11/01 04:29:50;;;;;;;15.60;10.67;;;9.50;99.90;;;;;;5062745;28;20447;-49
2021/11/01 04:32:29;;;;;;;15.93;11.07;;;10.70;99.90;;;;;;5053119;28;20498;-48
2021/11/01 04:35:00;;;;;;;15.40;9.20;;;9.50;99.90;;;;;;5053461;28;20454;-49
2021/11/01 04:37:29;;;;;;;13.00;8.63;;;9.50;99.90;;;;;;5053480;28;20490;-49
2021/11/01 04:40:16;;;;;;;14.50;8.60;;;9.50;99.90;;;;;;5053535;28;20459;-49
2021/11/01 04:53:43;;;;;;;13.20;8.27;;;9.60;99.90;;;;;;5052291;28;20434;-49
2021/11/01 04:56:11;;;;;;;10.90;7.50;;;9.60;99.90;;;;;;5057794;28;20478;-49
2021/11/01 04:58:42;;;;;;;9.90;6.70;;;9.60;99.90;;;;;;5072906;28;20950;-49
2021/11/01 05:01:09;;;;;;;12.50;7.83;;;9.90;99.90;;;;;;5072461;28;20456;-49
2021/11/01 05:03:38;;;;;;;10.27;7.87;;;9.60;99.90;;;;;;5072729;28;20447;-49
2021/11/01 05:06:06;;;;;;;11.03;7.50;;;9.60;99.90;;;;;;5060862;28;20501;-49
2021/11/01 05:08:42;;;;;;;10.33;7.17;;;9.80;99.90;;;;;;5052834;28;20489;-49
2021/11/01 05:11:18;;;;;;;8.77;6.97;;;9.70;99.90;;;;;;5064751;28;20468;-49
2021/11/01 05:13:46;;;;;;;11.67;8.30;;;9.60;99.90;;;;;;5072611;28;20450;-49
2021/11/01 05:16:16;;;;;;;12.07;8.33;;;9.80;99.90;;;;;;5072540;28;20482;-49
2021/11/01 05:18:49;;;;;;;18.10;9.67;;;9.60;99.90;;;;;;5072800;28;20477;-49
2021/11/01 05:21:24;;;;;;;15.20;9.90;;;9.60;99.90;;;;;;5072383;28;20486;-49
2021/11/01 05:23:55;;;;;;;18.83;10.30;;;9.70;99.90;;;;;;5054695;28;20447;-49
2021/11/01 05:26:34;;;;;;;12.30;9.40;;;9.80;99.90;;;;;;5059405;28;20448;-49
2021/11/01 05:29:04;;;;;;;14.60;9.07;;;10.00;99.90;;;;;;5052245;28;20533;-48
2021/11/01 05:31:42;;;;;;;15.03;9.83;;;10.00;99.90;;;;;;5052476;28;20464;-48
2021/11/01 05:34:10;;;;;;;15.03;9.97;;;10.10;99.90;;;;;;5051185;28;20809;-49
2021/11/01 05:36:38;;;;;;;15.10;10.13;;;10.10;99.90;;;;;;5051184;28;20484;-49
2021/11/01 05:39:06;;;;;;;13.63;9.20;;;10.20;99.90;;;;;;5052915;28;20555;-49
2021/11/01 05:41:35;;;;;;;11.50;9.00;;;10.20;99.90;;;;;;5051449;28;20455;-49
2021/11/01 05:44:03;;;;;;;11.13;8.77;;;10.30;99.90;;;;;;5052088;28;20836;-49
2021/11/01 05:46:34;;;;;;;12.07;8.70;;;10.40;99.90;;;;;;5051754;28;20460;-49
2021/11/01 05:49:03;;;;;;;14.93;8.30;;;10.30;99.90;;;;;;5049112;28;21020;-49
2021/11/01 05:51:30;;;;;;;14.60;9.00;;;10.30;99.90;;;;;;5049280;28;20459;-49
2021/11/01 05:54:04;;;;;;;11.63;7.47;;;10.30;99.90;;;;;;5045671;28;20444;-49
2021/11/01 05:56:38;;;;;;;10.30;5.37;;;10.20;99.90;;;;;;5050561;28;20479;-49
2021/11/01 05:59:36;;;;;;;8.87;5.40;;;9.90;99.90;;;;;;5046680;28;20480;-49
2021/11/01 06:02:23;;;;;;;8.00;5.37;;;10.00;99.90;;;;;;5050161;28;20459;-48
2021/11/01 06:05:08;;;;;;;10.63;5.50;;;10.00;99.90;;;;;;5051639;28;20571;-49
2021/11/01 06:07:42;;;;;;;7.57;5.57;;;10.10;99.90;;;;;;5047238;28;20471;-48
2021/11/01 06:10:12;;;;;;;7.13;4.60;;;10.10;99.90;;;;;;5046767;28;20452;-48
2021/11/01 06:15:27;;;;;;;5.30;4.40;;;10.60;99.90;;;;;;5051032;28;20511;-49
2021/11/01 06:17:55;;;;;;;7.20;5.30;;;10.50;99.90;;;;;;5046872;28;20514;-49
2021/11/01 06:20:22;;;;;;;7.03;5.60;;;10.40;99.90;;;;;;5044939;28;20886;-49
2021/11/01 06:22:53;;;;;;;9.60;5.93;;;10.40;99.90;;;;;;5042449;28;20459;-48
2021/11/01 06:25:21;;;;;;;7.83;5.70;;;10.50;99.90;;;;;;5047879;28;20538;-50
2021/11/01 06:27:54;;;;;;;9.93;5.13;;;10.50;99.90;;;;;;5050113;28;20981;-49
2021/11/01 06:30:27;;;;;;;6.10;4.30;;;10.50;99.90;;;;;;5047562;28;20448;-50
2021/11/01 06:33:17;;;;;;;5.33;4.83;;;10.60;99.90;;;;;;5049565;28;20452;-49
2021/11/01 06:44:14;;;;;;;6.73;4.93;;;11.10;99.90;;;;;;5050956;28;21024;-49
2021/11/01 06:52:37;;;;;;;6.60;4.30;;;11.10;99.90;;;;;;5050206;28;20443;-48
2021/11/01 06:55:19;;;;;;;5.07;4.37;;;11.10;99.90;;;;;;5045072;28;20479;-49
2021/11/01 06:57:53;;;;;;;3.73;2.73;;;11.10;99.90;;;;;;5051347;28;20491;-50
2021/11/01 07:14:15;;;;;;;5.27;4.13;;;11.40;99.90;;;;;;5045709;28;20474;-50
2021/11/01 07:16:47;;;;;;;4.17;3.10;;;11.40;99.90;;;;;;5048829;28;20479;-49
2021/11/01 07:19:22;;;;;;;4.83;3.93;;;11.70;99.90;;;;;;5054274;28;20566;-49
2021/11/01 08:25:30;;;;;;;2.40;0.70;;;10.50;99.90;;;;;;5052987;28;20529;-51
2021/11/01 08:42:15;;;;;;;0.90;0.50;;;10.60;99.90;;;;;;5009677;28;21024;-54
2021/11/01 09:04:30;;;;;;;3.17;2.70;;;10.80;99.90;;;;;;4988576;28;20199;-54
2021/11/01 09:10:17;;;;;;;0.70;0.60;;;10.60;99.90;;;;;;5044615;28;20469;-52
2021/11/01 09:13:09;;;;;;;0.90;0.90;;;10.50;99.90;;;;;;5040300;28;20467;-53
2021/11/01 09:24:02;;;;;;;2.50;1.47;;;10.70;99.90;;;;;;5036989;28;20487;-53
2021/11/01 09:26:33;;;;;;;1.73;1.37;;;10.70;99.90;;;;;;5039516;28;20515;-53
2021/11/01 09:29:07;;;;;;;1.00;0.90;;;10.60;99.90;;;;;;5044856;28;20490;-53
2021/11/01 09:37:26;;;;;;;2.07;1.70;;;10.30;99.90;;;;;;4984262;28;20483;-53
2021/11/01 09:42:46;;;;;;;2.47;1.10;;;10.30;99.90;;;;;;5039885;28;20447;-54
2021/11/01 09:45:13;;;;;;;0.60;0.40;;;10.50;99.90;;;;;;5032934;28;20471;-53
2021/11/01 09:47:42;;;;;;;0.77;0.70;;;10.50;99.90;;;;;;5039027;28;20522;-53
2021/11/01 09:50:13;;;;;;;0.70;0.60;;;10.50;99.90;;;;;;5033121;28;20552;-53
2021/11/01 09:52:43;;;;;;;0.80;0.77;;;10.50;99.90;;;;;;5044633;28;20470;-53
2021/11/01 09:55:29;;;;;;;3.43;2.00;;;10.70;99.90;;;;;;5031854;28;20449;-53
2021/11/01 10:00:42;;;;;;;1.70;1.33;;;10.80;99.90;;;;;;5017741;28;20540;-53
2021/11/01 10:03:09;;;;;;;2.00;1.20;;;10.80;99.90;;;;;;5044428;28;20448;-53
2021/11/01 10:05:37;;;;;;;1.00;0.90;;;10.80;99.90;;;;;;5033729;28;20526;-53
2021/11/01 10:08:19;;;;;;;1.50;0.80;;;10.70;99.90;;;;;;5041810;28;20491;-53
2021/11/01 10:10:46;;;;;;;1.37;1.20;;;10.60;99.90;;;;;;5039500;28;20463;-54
2021/11/01 10:13:14;;;;;;;1.30;1.10;;;10.50;99.90;;;;;;5039801;28;20499;-54
2021/11/01 10:18:26;;;;;;;2.57;2.00;;;10.60;99.90;;;;;;5042477;28;20540;-54
2021/11/01 10:20:58;;;;;;;3.53;1.63;;;10.70;99.90;;;;;;5038811;28;20466;-53
2021/11/01 10:23:27;;;;;;;2.20;1.37;;;10.60;99.90;;;;;;5040777;28;20477;-53
2021/11/01 10:26:06;;;;;;;1.37;1.27;;;10.40;99.90;;;;;;5036030;28;20448;-53
2021/11/01 10:28:35;;;;;;;1.77;1.50;;;10.20;99.90;;;;;;5049131;28;20487;-53
2021/11/01 10:31:08;;;;;;;2.93;2.20;;;10.20;99.90;;;;;;5044897;28;20463;-53
2021/11/01 10:33:42;;;;;;;3.00;2.43;;;10.10;99.90;;;;;;5056305;28;20530;-54
2021/11/01 10:36:11;;;;;;;5.13;2.80;;;10.10;99.90;;;;;;5050754;28;21111;-53
2021/11/01 10:38:40;;;;;;;4.70;2.23;;;10.00;99.90;;;;;;5050762;28;20491;-54
2021/11/01 10:41:12;;;;;;;2.73;1.60;;;10.00;99.90;;;;;;5046353;28;20448;-53
2021/11/01 10:43:50;;;;;;;1.40;1.30;;;10.10;99.90;;;;;;5045676;28;20537;-53
2021/11/01 11:12:02;;;;;;;3.87;2.73;;;10.10;99.90;;;;;;4996474;28;20456;-56
2021/11/01 11:14:34;;;;;;;4.03;3.17;;;10.20;99.90;;;;;;5031878;28;20475;-56
2021/11/01 11:17:21;;;;;;;6.23;3.43;;;10.20;99.90;;;;;;5053171;28;20520;-56
2021/11/01 11:37:42;;;;;;;4.10;3.27;;;10.30;99.90;;;;;;4996234;28;21019;-56
2021/11/01 11:40:35;;;;;;;8.33;4.60;;;10.30;99.90;;;;;;5052602;28;20877;-56
2021/11/01 11:43:18;;;;;;;4.50;3.50;;;10.30;99.90;;;;;;5053784;28;20475;-56
2021/11/01 11:48:39;;;;;;;3.20;2.17;;;10.20;99.90;;;;;;5054137;28;20478;-55
2021/11/01 11:51:07;;;;;;;4.03;2.30;;;10.20;99.90;;;;;;5049705;28;20459;-55
2021/11/01 11:53:35;;;;;;;3.77;2.43;;;10.20;99.90;;;;;;5053789;28;20452;-54
2021/11/01 11:56:08;;;;;;;2.50;2.27;;;10.20;99.90;;;;;;5053027;28;20814;-56
2021/11/01 11:58:41;;;;;;;3.70;2.47;;;10.20;99.90;;;;;;5053036;28;20993;-55
2021/11/01 12:01:28;;;;;;;3.00;2.40;;;10.20;99.90;;;;;;5052663;28;20962;-55
2021/11/01 12:03:56;;;;;;;2.20;2.00;;;10.20;99.90;;;;;;5042338;28;20455;-55
2021/11/01 12:06:43;;;;;;;2.90;2.30;;;10.20;99.90;;;;;;5053073;28;20505;-56
2021/11/01 12:09:15;;;;;;;3.87;2.90;;;10.20;99.90;;;;;;5048714;28;20537;-56
2021/11/01 12:17:37;;;;;;;3.17;2.50;;;10.30;99.90;;;;;;5082191;27;20613;-57
2021/11/01 12:20:07;;;;;;;3.70;2.83;;;10.30;99.90;;;;;;5068766;28;20458;-56
2021/11/01 12:22:40;;;;;;;10.23;6.20;;;10.30;99.90;;;;;;5063139;28;20526;-57
2021/11/01 12:25:13;;;;;;;4.50;3.67;;;10.30;99.90;;;;;;5048427;28;21082;-55
2021/11/01 12:27:55;;;;;;;9.63;5.43;;;10.30;99.90;;;;;;5061670;28;20504;-56
2021/11/01 12:30:30;;;;;;;15.57;7.93;;;10.30;99.90;;;;;;5063918;28;20455;-55
2021/11/01 12:33:03;;;;;;;9.40;5.73;;;10.20;99.90;;;;;;5062314;28;20454;-56
2021/11/01 12:35:32;;;;;;;12.43;6.67;;;10.20;99.90;;;;;;5067344;28;20556;-55
2021/11/01 12:38:05;;;;;;;11.47;6.77;;;10.20;99.90;;;;;;5068194;28;21092;-56
2021/11/01 12:40:44;;;;;;;10.20;5.83;;;10.10;99.90;;;;;;5050204;28;20535;-55
2021/11/01 12:43:31;;;;;;;8.60;5.70;;;10.10;99.90;;;;;;5062917;28;20451;-56
2021/11/01 12:57:14;;;;;;;8.07;5.23;;;10.20;99.90;;;;;;5038165;28;20468;-56
2021/11/01 12:59:45;;;;;;;4.77;4.30;;;10.20;99.90;;;;;;5048081;28;20464;-56
2021/11/01 13:02:15;;;;;;;4.63;3.30;;;10.20;99.90;;;;;;5054110;28;20448;-55
2021/11/01 13:04:45;;;;;;;5.73;3.00;;;10.20;99.90;;;;;;5065842;28;20457;-56
2021/11/01 13:07:22;;;;;;;3.53;2.60;;;10.00;99.90;;;;;;5060602;28;20447;-56
2021/11/01 13:09:55;;;;;;;4.30;2.87;;;9.90;99.90;;;;;;5066266;28;20451;-56
2021/11/01 13:12:42;;;;;;;2.90;2.60;;;9.90;99.90;;;;;;5060834;28;20459;-56
2021/11/01 13:18:17;;;;;;;5.07;2.93;;;9.70;99.90;;;;;;5005300;28;20541;-56
2021/11/01 13:20:49;;;;;;;5.63;2.90;;;9.70;99.90;;;;;;5005045;28;20955;-56
2021/11/01 13:23:16;;;;;;;3.00;2.63;;;9.70;99.90;;;;;;5034644;28;20443;-55
2021/11/01 13:25:53;;;;;;;3.30;2.50;;;9.90;99.90;;;;;;5056288;28;20509;-57
2021/11/01 13:36:53;;;;;;;2.83;1.97;;;9.50;99.90;;;;;;5043441;28;20471;-55
2021/11/01 13:39:27;;;;;;;3.37;2.23;;;9.70;99.90;;;;;;5053970;28;20471;-55
2021/11/01 13:41:55;;;;;;;2.30;1.80;;;9.80;99.90;;;;;;5051154;28;20455;-55
2021/11/01 13:44:25;;;;;;;2.43;2.17;;;9.70;99.90;;;;;;5033924;28;20452;-57
2021/11/01 13:46:56;;;;;;;2.77;2.10;;;9.70;99.90;;;;;;5034349;28;20452;-55
2021/11/01 13:49:23;;;;;;;2.97;1.60;;;9.60;99.90;;;;;;5051577;28;20502;-55
2021/11/01 13:51:52;;;;;;;3.47;1.97;;;9.60;99.90;;;;;;5049561;28;20954;-55
2021/11/01 13:54:33;;;;;;;2.03;1.40;;;9.60;99.90;;;;;;5046160;28;20444;-56
2021/11/01 13:57:04;;;;;;;1.20;1.10;;;9.50;99.90;;;;;;5053283;28;20522;-58
2021/11/01 13:59:47;;;;;;;1.80;1.00;;;9.30;99.90;;;;;;5053188;28;20556;-55
2021/11/01 14:13:32;;;;;;;1.10;0.97;;;9.20;99.90;;;;;;5041669;28;20508;-55
2021/11/01 14:19:01;;;;;;;1.57;1.20;;;9.00;99.90;;;;;;5042495;28;20487;-54
2021/11/01 14:27:22;;;;;;;3.20;1.50;;;9.00;99.90;;;;;;5033664;28;20892;-56
2021/11/01 15:08:39;;;;;;;2.37;1.50;;;9.20;99.90;;;;;;5051812;28;20570;-51
2021/11/01 15:14:07;;;;;;;1.07;0.97;;;9.00;99.90;;;;;;5052277;28;20443;-50
2021/11/01 15:16:47;;;;;;;2.00;1.40;;;8.90;99.90;;;;;;5051295;28;20481;-52
2021/11/01 15:25:23;;;;;;;2.43;1.60;;;8.70;99.90;;;;;;5052361;28;20855;-51
2021/11/01 15:28:08;;;;;;;1.17;0.90;;;8.70;99.90;;;;;;5052085;28;20442;-50
2021/11/01 15:33:41;;;;;;;7.60;3.90;;;8.70;99.90;;;;;;5051624;28;20447;-51
2021/11/01 15:36:38;;;;;;;2.60;1.57;;;8.50;99.90;;;;;;5051605;28;20479;-51
2021/11/01 16:20:22;;;;;;;1.80;0.80;;;8.20;99.90;;;;;;5046883;28;20858;-50
2021/11/01 16:22:57;;;;;;;1.07;0.80;;;8.20;99.90;;;;;;5048139;28;20999;-48
2021/11/01 16:25:27;;;;;;;1.43;0.93;;;8.20;99.90;;;;;;5047200;28;20470;-49
2021/11/01 16:27:57;;;;;;;1.20;1.10;;;8.40;99.90;;;;;;5056162;28;20487;-50
2021/11/01 16:30:29;;;;;;;1.37;0.90;;;8.40;99.90;;;;;;5049241;28;20520;-49
2021/11/01 16:33:00;;;;;;;1.17;0.63;;;8.30;99.90;;;;;;5049250;28;20495;-50
2021/11/01 16:35:34;;;;;;;1.17;0.80;;;8.20;99.90;;;;;;5045893;28;20474;-51
2021/11/01 16:38:06;;;;;;;0.77;0.60;;;8.20;99.90;;;;;;5049961;28;20485;-49
2021/11/01 16:40:34;;;;;;;0.90;0.90;;;8.20;99.90;;;;;;5049683;28;20470;-50
2021/11/01 16:43:02;;;;;;;1.40;1.00;;;8.20;99.90;;;;;;5045743;28;20468;-51
2021/11/01 16:45:32;;;;;;;0.87;0.80;;;8.20;99.90;;;;;;5041419;28;20877;-50
2021/11/01 16:48:00;;;;;;;0.80;0.80;;;8.20;99.90;;;;;;5044220;28;20487;-50
2021/11/01 16:50:29;;;;;;;0.87;0.73;;;8.10;99.90;;;;;;5039716;28;20469;-50
2021/11/01 16:52:59;;;;;;;0.60;0.60;;;8.10;99.90;;;;;;5040492;28;20459;-50
2021/11/01 16:55:30;;;;;;;2.00;0.90;;;8.20;99.90;;;;;;5039969;28;20461;-50
2021/11/01 16:58:10;;;;;;;0.70;0.70;;;8.20;99.90;;;;;;5043639;28;20456;-50
2021/11/01 17:00:38;;;;;;;2.00;0.90;;;8.20;99.90;;;;;;5040308;28;20835;-50
2021/11/01 17:03:19;;;;;;;2.43;1.50;;;8.20;99.90;;;;;;5041693;28;20559;-50
2021/11/01 17:05:59;;;;;;;1.33;1.23;;;8.20;99.90;;;;;;5045131;28;20470;-50
2021/11/01 17:22:24;;;;;;;1.80;1.30;;;8.10;99.90;;;;;;5046988;28;20450;-50
2021/11/01 17:24:57;;;;;;;1.03;0.93;;;8.00;99.90;;;;;;5053520;28;20472;-50
2021/11/01 17:36:17;;;;;;;0.80;0.80;;;8.00;99.90;;;;;;5049124;28;20563;-50
2021/11/01 18:40:09;;;;;;;1.67;1.40;;;7.70;99.90;;;;;;5040031;28;21007;-51
2021/11/01 18:51:02;;;;;;;1.70;1.30;;;7.70;99.90;;;;;;5051953;28;20465;-51
2021/11/01 18:53:35;;;;;;;2.07;1.70;;;7.90;99.90;;;;;;5038560;28;20957;-51
2021/11/01 18:56:05;;;;;;;3.50;1.90;;;7.80;99.90;;;;;;5052448;28;20500;-53
2021/11/01 18:58:35;;;;;;;2.03;1.83;;;7.80;99.90;;;;;;5044691;28;20464;-51
2021/11/01 19:01:05;;;;;;;2.20;2.00;;;7.80;99.90;;;;;;5033287;28;20449;-51
2021/11/01 19:03:36;;;;;;;2.85;2.33;;;7.80;99.90;;;;;;5044101;28;20536;-53
2021/11/01 19:06:16;;;;;;;3.77;2.07;;;8.00;99.90;;;;;;5040299;28;20219;-52
2021/11/01 19:08:49;;;;;;;2.00;1.80;;;7.90;99.90;;;;;;5038170;28;20487;-51
2021/11/01 20:04:34;;;;;;;1.80;1.70;;;7.90;99.90;;;;;;5071733;28;20445;-51
2021/11/01 20:13:01;;;;;;;4.63;1.90;;;7.80;99.90;;;;;;5079316;28;20488;-51
2021/11/01 21:25:18;;;;;;;3.00;2.30;;;8.00;99.90;;;;;;5033407;28;20443;-54
2021/11/01 21:27:46;;;;;;;3.03;1.43;;;7.80;99.90;;;;;;5032874;28;20459;-54
2021/11/01 21:30:14;;;;;;;3.07;1.53;;;7.80;99.90;;;;;;5032667;28;21008;-54
2021/11/01 21:32:41;;;;;;;1.93;1.60;;;7.70;99.90;;;;;;5029245;28;20490;-54
2021/11/01 21:35:10;;;;;;;2.03;1.67;;;7.70;99.90;;;;;;5031013;28;20475;-54
2021/11/01 21:37:38;;;;;;;1.40;1.30;;;7.70;99.90;;;;;;5032295;28;20536;-54
2021/11/01 21:40:07;;;;;;;2.20;1.70;;;7.60;99.90;;;;;;5031670;28;20961;-54
2021/11/01 21:42:34;;;;;;;1.40;1.30;;;7.70;99.90;;;;;;5031908;28;21285;-54
2021/11/01 21:45:05;;;;;;;1.60;1.50;;;7.60;99.90;;;;;;5032705;28;20487;-54
2021/11/01 21:47:35;;;;;;;1.40;1.30;;;7.50;99.90;;;;;;5032767;28;20452;-54
2021/11/01 21:50:02;;;;;;;1.97;1.50;;;7.50;99.90;;;;;;5032631;28;20485;-54
2021/11/01 21:52:30;;;;;;;3.90;1.53;;;7.50;99.90;;;;;;5032413;28;20468;-54
2021/11/01 21:54:58;;;;;;;2.50;1.87;;;7.50;99.90;;;;;;5032442;28;20950;-54
2021/11/01 21:57:30;;;;;;;2.57;1.97;;;7.50;99.90;;;;;;5031267;28;20865;-54
2021/11/01 22:22:29;;;;;;;2.93;1.97;;;7.80;99.90;;;;;;5012203;28;20547;-54
2021/11/01 22:25:05;;;;;;;2.60;2.13;;;7.80;99.90;;;;;;5026301;28;20455;-54
2021/11/01 22:38:49;;;;;;;3.53;1.80;;;7.60;99.90;;;;;;5031516;28;20528;-54
2021/11/01 22:41:29;;;;;;;2.73;1.77;;;7.60;99.90;;;;;;5031839;28;20449;-54
2021/11/01 22:44:20;;;;;;;2.40;1.83;;;7.60;99.90;;;;;;5031255;28;20486;-54
2021/11/01 22:57:43;;;;;;;3.90;2.47;;;7.40;99.90;;;;;;5031368;28;20866;-54
2021/11/01 23:00:18;;;;;;;4.03;2.37;;;7.40;99.90;;;;;;5031713;28;20503;-54
2021/11/01 23:02:47;;;;;;;3.77;1.80;;;7.30;99.90;;;;;;5030099;28;20920;-54
2021/11/01 23:05:28;;;;;;;4.10;1.90;;;7.30;99.90;;;;;;5031638;28;20479;-54
2021/11/01 23:32:39;;;;;;;2.03;1.53;;;7.50;99.90;;;;;;5030945;28;20511;-54
2021/11/01 23:35:06;;;;;;;4.73;2.10;;;7.30;99.90;;;;;;5031004;28;20455;-54
2021/11/01 23:37:33;;;;;;;3.00;1.73;;;7.30;99.90;;;;;;5027895;28;20452;-53
2021/11/01 23:40:02;;;;;;;3.33;2.20;;;7.30;99.90;;;;;;5031319;28;20448;-54
2021/11/01 23:42:29;;;;;;;2.40;2.20;;;7.30;99.90;;;;;;5030784;28;20468;-54
2021/11/01 23:44:56;;;;;;;3.20;2.37;;;7.30;99.90;;;;;;5031105;28;20451;-54
2021/11/01 23:47:23;;;;;;;3.70;2.20;;;7.10;99.90;;;;;;5031047;28;20453;-54